MDT,Max TemperatureF,Mean TemperatureF,Min TemperatureF,Max Dew PointF,MeanDew PointF,Min DewpointF,Max Humidity, Mean Humidity, Min Humidity, Max Sea Level PressureIn, Mean Sea Level PressureIn, Min Sea Level PressureIn, Max VisibilityMiles, Mean VisibilityMiles, Min VisibilityMiles, Max Wind SpeedMPH, Mean Wind SpeedMPH, Max Gust SpeedMPH,PrecipitationIn, CloudCover, Events, WindDirDegrees
2013-9-1,94,82,70,60,50,45,44,33,21,30.24,29.91,29.79,10,10,7,43,11,52,0.02,5,Rain-Thunderstorm,80
2013-9-2,88,79,70,57,53,48,61,44,26,30.04,29.96,29.85,10,10,10,22,8,25,0.01,6,Rain,132
2013-9-3,91,80,68,57,52,46,66,45,23,30.17,29.96,29.86,10,10,10,29,4,36,0.00,4,Thunderstorm,313
2013-9-4,91,80,69,52,43,33,44,29,14,30.06,29.99,29.91,10,10,10,21,8,26,0.00,1,,152
2013-9-5,90,79,67,42,37,32,37,26,15,30.09,30.02,29.94,10,10,10,15,5,21,0.00,0,,341
2013-9-6,89,77,64,44,38,32,35,26,16,30.08,29.98,29.88,10,10,10,17,6,21,0.00,0,,201
2013-9-7,89,78,66,58,49,45,54,40,26,30.14,29.95,29.85,10,10,9,30,5,40,0.18,4,Rain-Thunderstorm,165
2013-9-8,88,76,64,52,49,46,63,44,24,30.03,29.87,29.72,10,10,10,25,5,29,0.00,4,,252
2013-9-9,86,76,65,54,50,42,63,45,26,29.86,29.78,29.68,10,10,10,22,7,28,T,4,Rain,197
2013-9-10,73,68,62,61,58,52,93,74,55,30.15,29.95,29.81,10,9,2,22,5,26,0.85,7,Rain,149
2013-9-11,80,72,63,61,57,44,93,62,30,30.22,30.00,29.90,10,10,9,22,6,29,T,5,Rain,51
2013-9-12,72,67,62,63,59,55,93,78,63,30.24,30.05,29.92,10,8,1,16,9,18,0.60,6,Rain,60
2013-9-13,73,68,62,61,58,54,87,70,53,30.19,29.98,29.87,10,10,2,22,7,25,0.19,7,Rain-Thunderstorm,153
2013-9-14,73,66,58,59,57,54,87,70,53,30.14,30.00,29.83,10,9,2,21,6,25,1.22,7,Rain-Thunderstorm,171
2013-9-15,79,69,58,58,54,49,93,65,36,30.21,30.00,29.91,10,10,5,22,6,26,0.28,6,Rain-Thunderstorm,67
2013-9-16,77,68,59,56,53,49,78,58,38,30.12,30.04,29.97,10,10,10,15,5,17,0.00,3,,124
2013-9-17,80,70,60,56,55,51,78,57,36,30.21,29.94,29.82,10,10,10,15,6,22,0.00,3,,186
2013-9-18,82,73,64,58,55,48,78,56,33,30.00,29.83,29.75,10,10,10,17,6,21,T,5,Rain-Thunderstorm,182
2013-9-19,84,73,62,61,52,43,87,57,26,30.04,29.84,29.77,10,10,10,16,4,20,0.04,3,Rain-Thunderstorm,116
2013-9-20,80,71,61,52,50,48,67,51,35,29.98,29.92,29.87,10,10,10,31,12,39,0.00,2,,98
2013-9-21,79,69,59,55,52,48,78,57,35,30.00,29.90,29.81,10,10,10,16,7,22,0.00,1,,186
2013-9-22,81,70,58,55,51,37,75,52,28,29.85,29.73,29.52,10,9,1,37,14,46,0.58,4,Rain-Thunderstorm,174
2013-9-23,73,61,48,39,34,29,71,46,20,30.01,29.87,29.70,10,10,10,23,8,28,0.00,0,,307
2013-9-24,75,63,51,45,40,37,68,48,27,30.11,30.00,29.89,10,10,10,12,4,15,0.00,0,,111
2013-9-25,84,69,53,43,40,34,66,43,20,29.88,29.75,29.60,10,10,10,26,9,35,0.00,0,,163
2013-9-26,82,69,55,42,38,34,55,37,19,29.74,29.67,29.60,10,10,10,29,10,36,0.00,1,,161
2013-9-27,73,62,50,48,40,30,52,45,37,29.98,29.77,29.65,10,10,10,26,13,33,0.00,4,,287
2013-9-28,69,56,42,29,24,16,57,36,14,30.17,30.12,30.00,10,10,10,12,3,18,0.00,0,,319
2013-9-29,76,60,44,30,26,21,53,33,13,30.18,30.07,29.96,10,10,10,10,3,15,0.00,0,,322
2013-9-30,82,64,46,34,30,25,50,32,14,29.99,29.90,29.79,10,10,10,12,3,16,0.00,0,,282